sensor_id;sensor_type;location;lat;lon;timestamp;pressure;altitude;pressure_sealevel;temperature;humidity
56518;BME280;42419;48.760;2.322;2023-03-21T00:01:31;100970.09;;;24.70;38.51
56518;BME280;42419;48.760;2.322;2023-03-21T00:03:56;100976.44;;;24.69;38.10
56518;BME280;42419;48.760;2.322;2023-03-21T00:06:21;100970.97;;;24.70;37.50
56518;BME280;42419;48.760;2.322;2023-03-21T00:08:47;100949.25;;;24.57;37.92
56518;BME280;42419;48.760;2.322;2023-03-21T00:11:12;100973.66;;;24.70;37.87
56518;BME280;42419;48.760;2.322;2023-03-21T00:13:38;100970.09;;;24.70;37.26
56518;BME280;42419;48.760;2.322;2023-03-21T00:16:15;100972.72;;;24.71;37.20
56518;BME280;42419;48.760;2.322;2023-03-21T00:18:42;100959.34;;;24.70;37.50
56518;BME280;42419;48.760;2.322;2023-03-21T00:21:11;100961.25;;;24.68;37.21
56518;BME280;42419;48.760;2.322;2023-03-21T00:23:39;100962.09;;;24.68;36.93
56518;BME280;42419;48.760;2.322;2023-03-21T00:26:05;100964.91;;;24.67;37.27
56518;BME280;42419;48.760;2.322;2023-03-21T00:28:30;100947.94;;;24.65;37.36
56518;BME280;42419;48.760;2.322;2023-03-21T00:30:59;100876.63;;;24.23;36.90
56518;BME280;42419;48.760;2.322;2023-03-21T00:33:25;100953.19;;;24.68;37.27
56518;BME280;42419;48.760;2.322;2023-03-21T00:35:51;100948.75;;;24.67;36.67
56518;BME280;42419;48.760;2.322;2023-03-21T00:38:18;100947.78;;;24.68;37.31
56518;BME280;42419;48.760;2.322;2023-03-21T00:40:44;100946.91;;;24.67;36.93
56518;BME280;42419;48.760;2.322;2023-03-21T00:43:10;100949.63;;;24.67;36.67
56518;BME280;42419;48.760;2.322;2023-03-21T00:45:43;100947.78;;;24.68;36.78
56518;BME280;42419;48.760;2.322;2023-03-21T00:48:09;100943.34;;;24.67;36.41
56518;BME280;42419;48.760;2.322;2023-03-21T00:50:35;100944.22;;;24.67;37.00
56518;BME280;42419;48.760;2.322;2023-03-21T00:53:00;100939.78;;;24.66;36.20
56518;BME280;42419;48.760;2.322;2023-03-21T00:55:25;100940.56;;;24.68;36.78
56518;BME280;42419;48.760;2.322;2023-03-21T00:57:51;100935.16;;;24.68;36.28
56518;BME280;42419;48.760;2.322;2023-03-21T01:00:17;100870.84;;;24.31;36.54
56518;BME280;42419;48.760;2.322;2023-03-21T01:02:43;100934.34;;;24.68;36.23
56518;BME280;42419;48.760;2.322;2023-03-21T01:05:22;100927.09;;;24.68;36.32
56518;BME280;42419;48.760;2.322;2023-03-21T01:08:08;100929.78;;;24.68;36.42
56518;BME280;42419;48.760;2.322;2023-03-21T01:10:37;100914.69;;;24.66;36.37
56518;BME280;42419;48.760;2.322;2023-03-21T01:13:03;100918.31;;;24.65;35.99
56518;BME280;42419;48.760;2.322;2023-03-21T01:15:28;100879.81;;;24.47;36.18
56518;BME280;42419;48.760;2.322;2023-03-21T01:17:53;100899.91;;;24.57;35.70
56518;BME280;42419;48.760;2.322;2023-03-21T01:20:18;100912.78;;;24.68;35.95
56518;BME280;42419;48.760;2.322;2023-03-21T01:22:44;100907.41;;;24.68;35.64
56518;BME280;42419;48.760;2.322;2023-03-21T01:25:09;100896.63;;;24.68;36.03
56518;BME280;42419;48.760;2.322;2023-03-21T01:27:35;100908.16;;;24.70;35.98
56518;BME280;42419;48.760;2.322;2023-03-21T01:30:00;100902.84;;;24.68;35.77
56518;BME280;42419;48.760;2.322;2023-03-21T01:32:25;100910.84;;;24.70;36.13
56518;BME280;42419;48.760;2.322;2023-03-21T01:34:50;100914.50;;;24.69;36.03
56518;BME280;42419;48.760;2.322;2023-03-21T01:37:16;100914.50;;;24.69;35.35
56518;BME280;42419;48.760;2.322;2023-03-21T01:39:42;100909.13;;;24.69;35.49
56518;BME280;42419;48.760;2.322;2023-03-21T01:42:12;100902.84;;;24.68;35.29
56518;BME280;42419;48.760;2.322;2023-03-21T01:44:59;100907.22;;;24.71;35.63
56518;BME280;42419;48.760;2.322;2023-03-21T01:47:25;100903.59;;;24.72;35.19
56518;BME280;42419;48.760;2.322;2023-03-21T01:49:55;100803.47;;;24.16;35.32
56518;BME280;42419;48.760;2.322;2023-03-21T01:52:33;100874.81;;;24.56;35.35
56518;BME280;42419;48.760;2.322;2023-03-21T01:55:03;100899.03;;;24.72;35.60
56518;BME280;42419;48.760;2.322;2023-03-21T01:57:35;100899.91;;;24.73;35.13
56518;BME280;42419;48.760;2.322;2023-03-21T02:00:04;100889.31;;;24.70;34.93
56518;BME280;42419;48.760;2.322;2023-03-21T02:02:38;100888.19;;;24.74;35.28
56518;BME280;42419;48.760;2.322;2023-03-21T02:05:20;100886.38;;;24.74;34.95
56518;BME280;42419;48.760;2.322;2023-03-21T02:07:47;100878.47;;;24.71;34.83
56518;BME280;42419;48.760;2.322;2023-03-21T02:10:16;100879.16;;;24.75;35.05
56518;BME280;42419;48.760;2.322;2023-03-21T02:12:42;100873.78;;;24.75;34.99
56518;BME280;42419;48.760;2.322;2023-03-21T02:15:08;100850.41;;;24.59;34.58
56518;BME280;42419;48.760;2.322;2023-03-21T02:17:53;100869.16;;;24.77;34.76
56518;BME280;42419;48.760;2.322;2023-03-21T02:20:46;100866.47;;;24.77;34.60
56518;BME280;42419;48.760;2.322;2023-03-21T02:32:29;100859.34;;;24.76;34.52
56518;BME280;42419;48.760;2.322;2023-03-21T02:37:40;100780.66;;;24.39;34.42
56518;BME280;42419;48.760;2.322;2023-03-21T02:45:44;100851.09;;;24.79;34.23
56518;BME280;42419;48.760;2.322;2023-03-21T02:48:14;100829.00;;;24.72;33.95
56518;BME280;42419;48.760;2.322;2023-03-21T02:50:49;100820.88;;;24.74;34.06
56518;BME280;42419;48.760;2.322;2023-03-21T02:53:19;100827.13;;;24.74;33.85
56518;BME280;42419;48.760;2.322;2023-03-21T02:55:47;100836.69;;;24.80;34.08
56518;BME280;42419;48.760;2.322;2023-03-21T02:58:19;100825.22;;;24.76;33.84
56518;BME280;42419;48.760;2.322;2023-03-21T03:00:46;100835.81;;;24.79;33.77
56518;BME280;42419;48.760;2.322;2023-03-21T03:03:12;100775.78;;;24.46;33.68
56518;BME280;42419;48.760;2.322;2023-03-21T03:05:58;100810.53;;;24.66;34.04
56518;BME280;42419;48.760;2.322;2023-03-21T03:08:41;100830.22;;;24.82;33.89
56518;BME280;42419;48.760;2.322;2023-03-21T03:19:21;100830.16;;;24.84;33.54
56518;BME280;42419;48.760;2.322;2023-03-21T03:22:45;100814.00;;;24.84;33.67
56518;BME280;42419;48.760;2.322;2023-03-21T03:24:54;100830.91;;;24.86;33.36
56518;BME280;42419;48.760;2.322;2023-03-21T03:27:28;100816.69;;;24.84;33.58
56518;BME280;42419;48.760;2.322;2023-03-21T03:29:56;100794.81;;;24.74;33.34
56518;BME280;42419;48.760;2.322;2023-03-21T03:32:32;100738.34;;;24.41;33.30
56518;BME280;42419;48.760;2.322;2023-03-21T03:34:59;100809.09;;;24.90;33.30
56518;BME280;42419;48.760;2.322;2023-03-21T03:37:31;100819.78;;;25.08;32.72
56518;BME280;42419;48.760;2.322;2023-03-21T03:40:32;100821.34;;;25.12;32.90
56518;BME280;42419;48.760;2.322;2023-03-21T03:43:04;100826.84;;;25.10;32.37
56518;BME280;42419;48.760;2.322;2023-03-21T03:45:41;100823.19;;;25.11;32.91
56518;BME280;42419;48.760;2.322;2023-03-21T03:48:23;100816.84;;;25.12;32.37
56518;BME280;42419;48.760;2.322;2023-03-21T03:50:57;100744.97;;;24.67;32.48
56518;BME280;42419;48.760;2.322;2023-03-21T03:55:55;100810.91;;;25.05;32.95
56518;BME280;42419;48.760;2.322;2023-03-21T03:58:22;100810.03;;;25.05;32.67
56518;BME280;42419;48.760;2.322;2023-03-21T04:00:49;100797.28;;;24.93;32.62
56518;BME280;42419;48.760;2.322;2023-03-21T04:03:15;100784.00;;;24.90;32.78
56518;BME280;42419;48.760;2.322;2023-03-21T04:05:40;100803.28;;;24.98;32.99
56518;BME280;42419;48.760;2.322;2023-03-21T04:08:09;100751.22;;;24.68;32.61
56518;BME280;42419;48.760;2.322;2023-03-21T04:10:35;100800.47;;;24.99;32.18
56518;BME280;42419;48.760;2.322;2023-03-21T04:13:00;100802.75;;;24.91;32.61
56518;BME280;42419;48.760;2.322;2023-03-21T04:15:25;100813.19;;;24.97;32.41
56518;BME280;42419;48.760;2.322;2023-03-21T04:17:50;100817.03;;;24.93;32.59
56518;BME280;42419;48.760;2.322;2023-03-21T04:20:16;100817.69;;;24.97;32.63
56518;BME280;42419;48.760;2.322;2023-03-21T04:22:41;100813.19;;;24.97;32.30
56518;BME280;42419;48.760;2.322;2023-03-21T04:25:07;100827.59;;;24.96;32.16
56518;BME280;42419;48.760;2.322;2023-03-21T04:27:33;100806.59;;;24.87;32.64
56518;BME280;42419;48.760;2.322;2023-03-21T04:29:58;100811.03;;;24.88;32.42
56518;BME280;42419;48.760;2.322;2023-03-21T04:32:25;100824.91;;;24.96;32.53
56518;BME280;42419;48.760;2.322;2023-03-21T04:34:51;100815.97;;;24.96;32.98
56518;BME280;42419;48.760;2.322;2023-03-21T04:37:19;100808.16;;;24.91;32.28
56518;BME280;42419;48.760;2.322;2023-03-21T04:39:45;100815.09;;;24.95;32.42
56518;BME280;42419;48.760;2.322;2023-03-21T04:42:12;100813.19;;;24.97;32.44
56518;BME280;42419;48.760;2.322;2023-03-21T04:44:45;100790.50;;;24.86;32.41
56518;BME280;42419;48.760;2.322;2023-03-21T04:47:12;100807.81;;;24.97;32.42
56518;BME280;42419;48.760;2.322;2023-03-21T04:49:40;100806.13;;;24.95;32.36
56518;BME280;42419;48.760;2.322;2023-03-21T04:52:05;100807.81;;;24.97;31.95
56518;BME280;42419;48.760;2.322;2023-03-21T04:54:30;100802.41;;;24.97;32.30
56518;BME280;42419;48.760;2.322;2023-03-21T04:56:57;100810.50;;;24.97;32.44
56518;BME280;42419;48.760;2.322;2023-03-21T04:59:22;100810.50;;;24.97;32.10
56518;BME280;42419;48.760;2.322;2023-03-21T05:01:47;100805.19;;;24.96;32.21
56518;BME280;42419;48.760;2.322;2023-03-21T05:04:14;100810.50;;;24.97;31.96
56518;BME280;42419;48.760;2.322;2023-03-21T05:06:40;100815.00;;;24.97;31.77
56518;BME280;42419;48.760;2.322;2023-03-21T05:09:09;100792.25;;;24.87;32.00
56518;BME280;42419;48.760;2.322;2023-03-21T05:11:37;100809.63;;;24.97;32.02
56518;BME280;42419;48.760;2.322;2023-03-21T05:14:04;100787.81;;;24.86;32.05
56518;BME280;42419;48.760;2.322;2023-03-21T05:16:29;100804.22;;;24.97;32.17
56518;BME280;42419;48.760;2.322;2023-03-21T05:18:58;100804.22;;;24.97;32.21
56518;BME280;42419;48.760;2.322;2023-03-21T05:21:28;100800.59;;;24.98;31.97
56518;BME280;42419;48.760;2.322;2023-03-21T05:23:54;100790.75;;;24.97;31.69
56518;BME280;42419;48.760;2.322;2023-03-21T05:26:22;100777.03;;;24.86;31.53
56518;BME280;42419;48.760;2.322;2023-03-21T05:28:48;100786.53;;;24.93;31.62
56518;BME280;42419;48.760;2.322;2023-03-21T05:31:14;100799.78;;;24.96;31.76
56518;BME280;42419;48.760;2.322;2023-03-21T05:33:41;100800.47;;;24.99;31.88
56518;BME280;42419;48.760;2.322;2023-03-21T05:36:07;100801.47;;;24.98;31.95
56518;BME280;42419;48.760;2.322;2023-03-21T05:38:33;100805.78;;;25.01;31.54
56518;BME280;42419;48.760;2.322;2023-03-21T05:40:58;100802.22;;;25.00;31.34
56518;BME280;42419;48.760;2.322;2023-03-21T05:43:23;100803.09;;;25.01;31.79
56518;BME280;42419;48.760;2.322;2023-03-21T05:45:48;100801.28;;;25.01;32.02
56518;BME280;42419;48.760;2.322;2023-03-21T05:48:14;100807.53;;;25.02;31.71
56518;BME280;42419;48.760;2.322;2023-03-21T05:50:39;100803.78;;;25.04;31.71
56518;BME280;42419;48.760;2.322;2023-03-21T05:53:05;100782.88;;;24.94;31.52
56518;BME280;42419;48.760;2.322;2023-03-21T05:55:31;100803.69;;;25.06;31.02
56518;BME280;42419;48.760;2.322;2023-03-21T05:57:56;100793.00;;;25.04;31.88
56518;BME280;42419;48.760;2.322;2023-03-21T06:00:21;100793.88;;;25.05;31.80
56518;BME280;42419;48.760;2.322;2023-03-21T06:02:47;100805.50;;;25.05;31.19
56518;BME280;42419;48.760;2.322;2023-03-21T06:05:12;100777.38;;;24.95;31.24
56518;BME280;42419;48.760;2.322;2023-03-21T06:07:37;100793.88;;;25.05;31.63
56518;BME280;42419;48.760;2.322;2023-03-21T06:10:04;100783.88;;;25.07;31.65
56518;BME280;42419;48.760;2.322;2023-03-21T06:12:30;100801.00;;;25.06;31.67
56518;BME280;42419;48.760;2.322;2023-03-21T06:14:55;100816.22;;;25.07;31.38
56518;BME280;42419;48.760;2.322;2023-03-21T06:17:21;100800.91;;;25.08;31.62
56518;BME280;42419;48.760;2.322;2023-03-21T06:19:46;100805.31;;;25.09;31.16
56518;BME280;42419;48.760;2.322;2023-03-21T06:22:11;100745.13;;;24.64;31.61
56518;BME280;42419;48.760;2.322;2023-03-21T06:24:37;100794.22;;;24.99;31.44
56518;BME280;42419;48.760;2.322;2023-03-21T06:27:02;100814.91;;;25.14;31.68
56518;BME280;42419;48.760;2.322;2023-03-21T06:29:28;100814.03;;;25.14;31.87
56518;BME280;42419;48.760;2.322;2023-03-21T06:31:53;100749.09;;;24.73;31.79
56518;BME280;42419;48.760;2.322;2023-03-21T06:34:18;100816.66;;;25.15;32.09
56518;BME280;42419;48.760;2.322;2023-03-21T06:36:44;100817.31;;;25.19;32.83
56518;BME280;42419;48.760;2.322;2023-03-21T06:39:10;100802.56;;;25.10;32.88
56518;BME280;42419;48.760;2.322;2023-03-21T06:41:36;100810.91;;;25.21;32.91
56518;BME280;42419;48.760;2.322;2023-03-21T06:44:02;100789.91;;;25.12;33.30
56518;BME280;42419;48.760;2.322;2023-03-21T06:46:27;100799.13;;;25.22;33.59
56518;BME280;42419;48.760;2.322;2023-03-21T06:48:52;100771.03;;;25.12;33.01
56518;BME280;42419;48.760;2.322;2023-03-21T06:51:18;100798.09;;;25.25;33.60
56518;BME280;42419;48.760;2.322;2023-03-21T06:53:43;100793.47;;;25.27;33.35
56518;BME280;42419;48.760;2.322;2023-03-21T06:56:09;100789.53;;;25.32;32.97
56518;BME280;42419;48.760;2.322;2023-03-21T06:58:35;100779.19;;;25.55;32.98
56518;BME280;42419;48.760;2.322;2023-03-21T07:01:01;100780.84;;;25.71;32.61
56518;BME280;42419;48.760;2.322;2023-03-21T07:03:28;100775.09;;;25.77;32.69
56518;BME280;42419;48.760;2.322;2023-03-21T07:05:53;100769.78;;;25.76;32.24
56518;BME280;42419;48.760;2.322;2023-03-21T07:08:19;100772.19;;;25.80;32.14
56518;BME280;42419;48.760;2.322;2023-03-21T07:10:44;100766.13;;;25.77;32.53
56518;BME280;42419;48.760;2.322;2023-03-21T07:13:12;100765.25;;;25.76;32.54
56518;BME280;42419;48.760;2.322;2023-03-21T07:15:38;100766.31;;;25.74;31.90
56518;BME280;42419;48.760;2.322;2023-03-21T07:18:04;100778.31;;;25.68;31.83
56518;BME280;42419;48.760;2.322;2023-03-21T07:20:29;100775.91;;;25.64;32.39
56518;BME280;42419;48.760;2.322;2023-03-21T07:22:55;100763.88;;;25.55;32.17
56518;BME280;42419;48.760;2.322;2023-03-21T07:25:21;100692.78;;;25.14;31.70
56518;BME280;42419;48.760;2.322;2023-03-21T07:27:46;100775.69;;;25.53;31.83
56518;BME280;42419;48.760;2.322;2023-03-21T07:30:11;100765.59;;;25.42;31.64
56518;BME280;42419;48.760;2.322;2023-03-21T07:32:37;100780.41;;;25.49;31.53
56518;BME280;42419;48.760;2.322;2023-03-21T07:35:03;100767.78;;;25.35;32.10
56518;BME280;42419;48.760;2.322;2023-03-21T07:37:30;100716.88;;;25.01;31.44
56518;BME280;42419;48.760;2.322;2023-03-21T07:39:55;100789.84;;;25.42;31.73
56518;BME280;42419;48.760;2.322;2023-03-21T07:42:20;100723.53;;;25.10;31.90
56518;BME280;42419;48.760;2.322;2023-03-21T07:44:46;100704.03;;;24.90;31.88
56518;BME280;42419;48.760;2.322;2023-03-21T07:47:11;100781.09;;;25.38;31.40
56518;BME280;42419;48.760;2.322;2023-03-21T07:49:36;100748.72;;;25.24;31.79
56518;BME280;42419;48.760;2.322;2023-03-21T07:52:02;100752.09;;;25.28;31.27
56518;BME280;42419;48.760;2.322;2023-03-21T07:54:28;100761.06;;;25.28;31.65
56518;BME280;42419;48.760;2.322;2023-03-21T07:56:54;100748.03;;;25.35;31.46
56518;BME280;42419;48.760;2.322;2023-03-21T07:59:21;100659.03;;;24.92;31.09
56518;BME280;42419;48.760;2.322;2023-03-21T08:01:46;100708.09;;;25.27;31.52
56518;BME280;42419;48.760;2.322;2023-03-21T08:04:11;100731.41;;;25.28;31.25
56518;BME280;42419;48.760;2.322;2023-03-21T08:06:38;100737.09;;;25.38;31.56
56518;BME280;42419;48.760;2.322;2023-03-21T08:09:03;100748.63;;;25.40;31.03
56518;BME280;42419;48.760;2.322;2023-03-21T08:11:29;100762.97;;;25.40;31.32
56518;BME280;42419;48.760;2.322;2023-03-21T08:13:58;100708.81;;;25.01;31.22
56518;BME280;42419;48.760;2.322;2023-03-21T08:16:24;100774.03;;;25.36;30.95
56518;BME280;42419;48.760;2.322;2023-03-21T08:18:49;100783.19;;;25.33;30.97
56518;BME280;42419;48.760;2.322;2023-03-21T08:21:15;100805.34;;;25.38;31.02
56518;BME280;42419;48.760;2.322;2023-03-21T08:23:40;100801.69;;;25.39;30.68
56518;BME280;42419;48.760;2.322;2023-03-21T08:26:05;100812.56;;;25.38;31.27
56518;BME280;42419;48.760;2.322;2023-03-21T08:28:31;100826.13;;;25.36;31.00
56518;BME280;42419;48.760;2.322;2023-03-21T08:30:57;100819.88;;;25.36;31.10
56518;BME280;42419;48.760;2.322;2023-03-21T08:33:22;100743.63;;;24.90;30.34
56518;BME280;42419;48.760;2.322;2023-03-21T08:35:48;100730.16;;;24.90;30.85
56518;BME280;42419;48.760;2.322;2023-03-21T08:38:13;100751.44;;;25.09;30.50
56518;BME280;42419;48.760;2.322;2023-03-21T08:40:39;100769.81;;;25.32;30.86
56518;BME280;42419;48.760;2.322;2023-03-21T08:43:05;100755.47;;;25.31;30.58
56518;BME280;42419;48.760;2.322;2023-03-21T08:45:31;100755.47;;;25.31;30.42
56518;BME280;42419;48.760;2.322;2023-03-21T08:47:56;100712.22;;;25.19;30.51
56518;BME280;42419;48.760;2.322;2023-03-21T08:50:23;100772.31;;;25.35;30.30
56518;BME280;42419;48.760;2.322;2023-03-21T08:52:50;100718.38;;;24.91;30.67
56518;BME280;42419;48.760;2.322;2023-03-21T08:55:17;100729.41;;;25.02;30.37
56518;BME280;42419;48.760;2.322;2023-03-21T08:57:43;100792.91;;;25.36;30.67
56518;BME280;42419;48.760;2.322;2023-03-21T09:00:13;100792.91;;;25.36;30.79
56518;BME280;42419;48.760;2.322;2023-03-21T09:02:39;100713.97;;;24.90;30.91
56518;BME280;42419;48.760;2.322;2023-03-21T09:05:05;100705.78;;;24.91;30.86
56518;BME280;42419;48.760;2.322;2023-03-21T09:07:32;100801.13;;;25.34;30.72
56518;BME280;42419;48.760;2.322;2023-03-21T09:10:00;100781.66;;;25.29;30.76
56518;BME280;42419;48.760;2.322;2023-03-21T09:12:26;100784.34;;;25.29;30.56
56518;BME280;42419;48.760;2.322;2023-03-21T09:14:51;100780.94;;;25.26;30.77
56518;BME280;42419;48.760;2.322;2023-03-21T09:17:17;100789.03;;;25.26;30.89
56518;BME280;42419;48.760;2.322;2023-03-21T09:19:43;100798.50;;;25.33;30.49
56518;BME280;42419;48.760;2.322;2023-03-21T09:22:08;100797.63;;;25.32;30.38
56518;BME280;42419;48.760;2.322;2023-03-21T09:24:42;100779.41;;;25.22;30.81
56518;BME280;42419;48.760;2.322;2023-03-21T09:27:07;100809.47;;;25.30;30.58
56518;BME280;42419;48.760;2.322;2023-03-21T09:29:33;100791.44;;;25.30;30.89
56518;BME280;42419;48.760;2.322;2023-03-21T09:31:59;100730.63;;;24.96;31.02
56518;BME280;42419;48.760;2.322;2023-03-21T09:34:25;100776.91;;;25.19;30.69
56518;BME280;42419;48.760;2.322;2023-03-21T09:36:51;100790.47;;;25.17;30.96
56518;BME280;42419;48.760;2.322;2023-03-21T09:39:21;100814.88;;;25.30;30.95
56518;BME280;42419;48.760;2.322;2023-03-21T09:42:01;100806.69;;;25.31;30.44
56518;BME280;42419;48.760;2.322;2023-03-21T09:44:47;100736.47;;;24.89;30.97
56518;BME280;42419;48.760;2.322;2023-03-21T09:47:19;100811.31;;;25.29;30.42
56518;BME280;42419;48.760;2.322;2023-03-21T09:49:52;100806.88;;;25.28;30.81
56518;BME280;42419;48.760;2.322;2023-03-21T09:52:26;100806.94;;;25.27;30.75
56518;BME280;42419;48.760;2.322;2023-03-21T09:54:54;100804.38;;;25.25;30.63
56518;BME280;42419;48.760;2.322;2023-03-21T09:57:30;100796.28;;;25.25;30.83
56518;BME280;42419;48.760;2.322;2023-03-21T09:59:59;100788.28;;;25.24;30.57
56518;BME280;42419;48.760;2.322;2023-03-21T10:05:11;100794.63;;;25.23;30.73
56518;BME280;42419;48.760;2.322;2023-03-21T10:07:43;100800.13;;;25.21;31.06
56518;BME280;42419;48.760;2.322;2023-03-21T10:10:18;100799.13;;;25.22;30.95
56518;BME280;42419;48.760;2.322;2023-03-21T10:12:44;100796.72;;;25.18;30.76
56518;BME280;42419;48.760;2.322;2023-03-21T10:15:16;100814.56;;;25.20;30.68
56518;BME280;42419;48.760;2.322;2023-03-21T10:17:46;100815.59;;;25.18;30.92
56518;BME280;42419;48.760;2.322;2023-03-21T10:20:18;100812.81;;;25.19;30.91
56518;BME280;42419;48.760;2.322;2023-03-21T10:22:46;100747.97;;;24.77;30.91
56518;BME280;42419;48.760;2.322;2023-03-21T10:25:19;100813.16;;;25.13;30.95
56518;BME280;42419;48.760;2.322;2023-03-21T10:27:47;100732.81;;;24.60;31.06
56518;BME280;42419;48.760;2.322;2023-03-21T10:33:01;100807.81;;;24.97;30.95
56518;BME280;42419;48.760;2.322;2023-03-21T10:35:29;100816.75;;;24.98;30.62
56518;BME280;42419;48.760;2.322;2023-03-21T10:37:58;100818.47;;;24.99;30.76
56518;BME280;42419;48.760;2.322;2023-03-21T10:40:24;100760.41;;;24.64;30.63
56518;BME280;42419;48.760;2.322;2023-03-21T10:42:50;100795.63;;;24.90;30.85
56518;BME280;42419;48.760;2.322;2023-03-21T10:45:17;100800.47;;;24.99;30.98
56518;BME280;42419;48.760;2.322;2023-03-21T10:47:46;100797.78;;;24.99;31.19
56518;BME280;42419;48.760;2.322;2023-03-21T10:50:15;100795.09;;;24.99;31.30
56518;BME280;42419;48.760;2.322;2023-03-21T10:52:52;100715.28;;;24.53;30.96
56518;BME280;42419;48.760;2.322;2023-03-21T10:55:33;100800.41;;;25.01;31.70
56518;BME280;42419;48.760;2.322;2023-03-21T10:58:06;100788.34;;;24.92;31.78
56518;BME280;42419;48.760;2.322;2023-03-21T11:00:36;100801.47;;;24.98;31.88
56518;BME280;42419;48.760;2.322;2023-03-21T11:03:04;100798.84;;;24.97;31.85
56518;BME280;42419;48.760;2.322;2023-03-21T11:05:40;100803.28;;;24.98;31.93
56518;BME280;42419;48.760;2.322;2023-03-21T11:08:11;100742.34;;;24.66;32.54
56518;BME280;42419;48.760;2.322;2023-03-21T11:10:50;100785.38;;;24.97;32.40
56518;BME280;42419;48.760;2.322;2023-03-21T11:13:19;100754.22;;;24.77;32.54
56518;BME280;42419;48.760;2.322;2023-03-21T11:15:56;100790.69;;;24.98;32.33
56518;BME280;42419;48.760;2.322;2023-03-21T11:18:28;100791.53;;;24.99;32.23
56518;BME280;42419;48.760;2.322;2023-03-21T11:20:58;100717.03;;;24.54;32.35
56518;BME280;42419;48.760;2.322;2023-03-21T11:23:29;100797.03;;;24.97;32.85
56518;BME280;42419;48.760;2.322;2023-03-21T11:25:55;100783.75;;;24.94;32.83
56518;BME280;42419;48.760;2.322;2023-03-21T11:28:25;100789.13;;;24.94;32.80
56518;BME280;42419;48.760;2.322;2023-03-21T11:30:59;100783.81;;;24.93;32.77
56518;BME280;42419;48.760;2.322;2023-03-21T11:33:34;100713.78;;;24.47;32.43
56518;BME280;42419;48.760;2.322;2023-03-21T11:36:47;100784.97;;;24.89;32.82
56518;BME280;42419;48.760;2.322;2023-03-21T11:41:24;100783.41;;;24.85;33.03
56518;BME280;42419;48.760;2.322;2023-03-21T11:43:52;100780.88;;;24.82;32.63
56518;BME280;42419;48.760;2.322;2023-03-21T11:46:25;100785.50;;;24.80;32.96
56518;BME280;42419;48.760;2.322;2023-03-21T11:48:50;100708.34;;;24.33;32.77
56518;BME280;42419;48.760;2.322;2023-03-21T11:51:35;100755.13;;;24.62;33.12
56518;BME280;42419;48.760;2.322;2023-03-21T11:56:39;100783.25;;;24.72;33.24
56518;BME280;42419;48.760;2.322;2023-03-21T12:04:25;100790.91;;;24.64;32.93
56518;BME280;42419;48.760;2.322;2023-03-21T12:07:18;100780.25;;;24.63;32.96
56518;BME280;42419;48.760;2.322;2023-03-21T12:12:44;100784.06;;;24.58;32.58
56518;BME280;42419;48.760;2.322;2023-03-21T12:15:20;100748.09;;;24.44;32.64
56518;BME280;42419;48.760;2.322;2023-03-21T12:17:57;100777.97;;;24.55;32.55
56518;BME280;42419;48.760;2.322;2023-03-21T12:21:02;100712.25;;;24.12;32.52
56518;BME280;42419;48.760;2.322;2023-03-21T12:26:23;100743.44;;;24.32;32.63
56518;BME280;42419;48.760;2.322;2023-03-21T12:29:06;100756.94;;;24.46;32.19
56518;BME280;42419;48.760;2.322;2023-03-21T12:31:56;100762.31;;;24.46;32.40
56518;BME280;42419;48.760;2.322;2023-03-21T12:35:14;100761.44;;;24.45;32.53
56518;BME280;42419;48.760;2.322;2023-03-21T12:39:49;100721.78;;;24.33;32.30
56518;BME280;42419;48.760;2.322;2023-03-21T12:42:35;100682.94;;;24.07;32.06
56518;BME280;42419;48.760;2.322;2023-03-21T12:45:15;100732.91;;;24.43;32.66
56518;BME280;42419;48.760;2.322;2023-03-21T12:47:48;100717.34;;;24.32;32.33
56518;BME280;42419;48.760;2.322;2023-03-21T12:50:28;100723.88;;;24.44;32.12
56518;BME280;42419;48.760;2.322;2023-03-21T12:53:00;100724.75;;;24.44;32.16
56518;BME280;42419;48.760;2.322;2023-03-21T12:55:31;100725.69;;;24.43;32.62
56518;BME280;42419;48.760;2.322;2023-03-21T12:58:37;100725.69;;;24.43;32.11
56518;BME280;42419;48.760;2.322;2023-03-21T13:00:56;100712.31;;;24.42;32.61
56518;BME280;42419;48.760;2.322;2023-03-21T13:03:45;100713.78;;;24.47;32.25
56518;BME280;42419;48.760;2.322;2023-03-21T13:06:16;100713.78;;;24.47;32.46
56518;BME280;42419;48.760;2.322;2023-03-21T13:08:47;100715.59;;;24.47;32.95
56518;BME280;42419;48.760;2.322;2023-03-21T13:11:19;100709.34;;;24.46;32.70
56518;BME280;42419;48.760;2.322;2023-03-21T13:27:00;100717.00;;;24.38;33.07
56518;BME280;42419;48.760;2.322;2023-03-21T13:29:30;100712.69;;;24.36;33.40
56518;BME280;42419;48.760;2.322;2023-03-21T13:32:06;100704.69;;;24.34;33.08
56518;BME280;42419;48.760;2.322;2023-03-21T13:34:33;100721.72;;;24.35;33.02
56518;BME280;42419;48.760;2.322;2023-03-21T13:37:00;100693.13;;;24.32;32.90
56518;BME280;42419;48.760;2.322;2023-03-21T13:39:27;100698.44;;;24.34;33.19
56518;BME280;42419;48.760;2.322;2023-03-21T13:41:53;100687.75;;;24.32;33.03
56518;BME280;42419;48.760;2.322;2023-03-21T13:44:39;100686.81;;;24.33;33.13
56518;BME280;42419;48.760;2.322;2023-03-21T13:47:22;100646.16;;;24.08;33.18
56518;BME280;42419;48.760;2.322;2023-03-21T13:50:34;100680.66;;;24.31;33.40
56518;BME280;42419;48.760;2.322;2023-03-21T13:55:27;100684.38;;;24.29;33.25
56518;BME280;42419;48.760;2.322;2023-03-21T13:57:52;100675.53;;;24.27;32.75
56518;BME280;42419;48.760;2.322;2023-03-21T14:00:23;100668.44;;;24.26;32.61
56518;BME280;42419;48.760;2.322;2023-03-21T14:03:12;100674.84;;;24.23;33.03
56518;BME280;42419;48.760;2.322;2023-03-21T14:05:41;100587.16;;;23.73;32.89
56518;BME280;42419;48.760;2.322;2023-03-21T14:08:16;100668.69;;;24.21;32.58
56518;BME280;42419;48.760;2.322;2023-03-21T14:10:44;100593.31;;;23.76;32.67